createdAt,value
2019-04-28T00:01:21.053Z,99.90
2019-04-28T00:03:51.587Z,99.90
2019-04-28T00:06:21.206Z,99.90
2019-04-28T00:08:51.743Z,99.90
2019-04-28T00:11:22.600Z,99.90
2019-04-28T00:13:53.644Z,99.90
2019-04-28T00:16:23.303Z,99.90
2019-04-28T00:18:52.892Z,99.90
2019-04-28T00:21:35.430Z,99.90
2019-04-28T00:24:23.141Z,99.90
2019-04-28T00:26:55.682Z,99.90
2019-04-28T00:29:37.312Z,99.90
2019-04-28T00:31:56.554Z,99.90
2019-04-28T00:34:26.117Z,99.90
2019-04-28T00:37:06.945Z,99.90
2019-04-28T00:39:36.376Z,99.90
2019-04-28T00:42:06.173Z,99.90
2019-04-28T00:44:41.560Z,99.90
2019-04-28T00:47:11.049Z,99.90
2019-04-28T00:49:48.168Z,99.90
2019-04-28T00:52:22.168Z,99.90
2019-04-28T00:54:52.586Z,99.90
2019-04-28T00:57:25.747Z,99.90
2019-04-28T00:59:58.670Z,99.90
2019-04-28T01:02:45.717Z,99.90
2019-04-28T01:05:15.746Z,99.90
2019-04-28T01:07:45.341Z,99.90
2019-04-28T01:10:14.975Z,99.90
2019-04-28T01:12:46.625Z,99.90
2019-04-28T01:15:30.446Z,99.90
2019-04-28T01:18:10.476Z,99.90
2019-04-28T01:20:40.021Z,99.90
2019-04-28T01:23:10.376Z,99.90
2019-04-28T01:25:40.177Z,99.90
2019-04-28T01:28:10.200Z,99.90
2019-04-28T01:31:10.636Z,99.90
2019-04-28T01:34:01.767Z,99.90
2019-04-28T01:36:40.726Z,99.90
2019-04-28T01:39:10.338Z,99.90
2019-04-28T01:41:39.887Z,99.90
2019-04-28T01:44:11.008Z,99.90
2019-04-28T01:46:40.559Z,99.90
2019-04-28T01:49:09.992Z,99.90
2019-04-28T01:51:41.439Z,99.90
2019-04-28T01:54:11.680Z,99.90
2019-04-28T01:56:41.478Z,99.90
2019-04-28T01:59:10.985Z,99.90
2019-04-28T02:01:40.750Z,99.90
2019-04-28T02:04:12.938Z,99.90
2019-04-28T02:06:42.455Z,99.90
2019-04-28T02:09:12.072Z,99.90
2019-04-28T02:11:41.690Z,99.90
2019-04-28T02:14:11.292Z,99.90
2019-04-28T02:16:40.867Z,99.90
2019-04-28T02:19:10.758Z,99.90
2019-04-28T02:21:55.574Z,99.90
2019-04-28T02:24:32.212Z,99.90
2019-04-28T02:27:01.757Z,99.90
2019-04-28T02:29:35.161Z,99.90
2019-04-28T02:32:06.077Z,99.90
2019-04-28T02:34:35.490Z,99.90
2019-04-28T02:37:04.899Z,99.90
2019-04-28T02:39:34.297Z,99.90
2019-04-28T02:42:03.744Z,99.90
2019-04-28T02:44:35.210Z,99.90
2019-04-28T02:47:05.548Z,99.90
2019-04-28T02:49:56.925Z,99.90
2019-04-28T02:52:44.167Z,99.90
2019-04-28T02:55:14.234Z,99.90
2019-04-28T02:57:51.690Z,99.90
2019-04-28T03:00:22.971Z,99.90
2019-04-28T03:02:52.943Z,99.90
2019-04-28T03:05:22.628Z,99.90
2019-04-28T03:07:52.618Z,99.90
2019-04-28T03:10:22.437Z,99.90
2019-04-28T03:12:52.446Z,99.90
2019-04-28T03:15:22.668Z,99.90
2019-04-28T03:17:53.572Z,99.90
2019-04-28T03:20:23.723Z,99.90
2019-04-28T03:22:53.784Z,99.90
2019-04-28T03:25:33.592Z,99.90
2019-04-28T03:28:12.382Z,99.90
2019-04-28T03:31:48.958Z,99.90
2019-04-28T03:33:55.332Z,99.90
2019-04-28T03:36:25.403Z,99.90
2019-04-28T03:38:55.589Z,99.90
2019-04-28T03:41:25.613Z,99.90
2019-04-28T03:43:55.533Z,99.90
2019-04-28T03:46:30.207Z,99.90
2019-04-28T03:49:00.740Z,99.90
2019-04-28T03:51:32.340Z,99.90
2019-04-28T03:54:03.127Z,99.90
2019-04-28T03:56:43.805Z,99.90
2019-04-28T03:59:31.175Z,99.90
2019-04-28T04:02:11.487Z,99.90
2019-04-28T04:05:04.036Z,99.90
2019-04-28T04:07:35.209Z,99.90
2019-04-28T04:10:13.450Z,99.90
2019-04-28T04:13:07.701Z,99.90
2019-04-28T04:15:49.475Z,99.90
2019-04-28T04:18:22.685Z,99.90
2019-04-28T04:20:55.674Z,99.90
2019-04-28T04:23:30.919Z,99.90
2019-04-28T04:26:11.657Z,99.90
2019-04-28T04:28:41.787Z,99.90
2019-04-28T04:31:12.433Z,99.90
2019-04-28T04:33:42.142Z,99.90
2019-04-28T04:36:15.098Z,99.90
2019-04-28T04:38:57.434Z,99.90
2019-04-28T04:41:30.401Z,99.90
2019-04-28T04:44:10.908Z,99.90
2019-04-28T04:46:41.485Z,99.90
2019-04-28T04:49:11.988Z,99.90
2019-04-28T04:51:43.897Z,99.90
2019-04-28T04:54:13.413Z,99.90
2019-04-28T04:56:45.882Z,99.90
2019-04-28T04:59:25.218Z,99.90
2019-04-28T05:02:26.606Z,99.90
2019-04-28T05:08:05.209Z,99.90
2019-04-28T05:10:41.369Z,99.90
2019-04-28T05:13:17.531Z,99.90
2019-04-28T05:15:52.499Z,99.90
2019-04-28T05:18:26.986Z,99.90
2019-04-28T05:20:59.666Z,99.90
2019-04-28T05:23:51.596Z,99.90
2019-04-28T05:26:21.818Z,99.90
2019-04-28T05:28:55.522Z,99.90
2019-04-28T05:31:31.170Z,99.90
2019-04-28T05:34:11.613Z,99.90
2019-04-28T05:36:46.707Z,99.90
2019-04-28T05:39:22.936Z,99.90
2019-04-28T05:41:54.250Z,99.90
2019-04-28T05:44:37.751Z,99.90
2019-04-28T05:47:11.042Z,99.90
2019-04-28T05:49:59.882Z,99.90
2019-04-28T05:53:00.578Z,99.90
2019-04-28T05:55:50.525Z,99.90
2019-04-28T05:58:46.203Z,99.90
2019-04-28T06:01:35.754Z,99.90
2019-04-28T06:04:09.616Z,99.90
2019-04-28T06:06:42.314Z,99.90
2019-04-28T06:09:46.454Z,99.90
2019-04-28T06:12:31.981Z,99.90
2019-04-28T06:15:02.053Z,99.90
2019-04-28T06:17:32.171Z,99.90
2019-04-28T06:20:05.057Z,99.90
2019-04-28T06:22:35.106Z,99.90
2019-04-28T06:25:04.671Z,99.90
2019-04-28T06:28:10.130Z,99.90
2019-04-28T06:30:40.074Z,99.90
2019-04-28T06:33:09.880Z,99.90
2019-04-28T06:35:43.853Z,99.90
2019-04-28T06:38:13.783Z,99.90
2019-04-28T06:40:47.793Z,99.90
2019-04-28T06:43:17.675Z,99.90
2019-04-28T06:45:47.753Z,99.90
2019-04-28T06:48:24.226Z,99.90
2019-04-28T06:50:57.208Z,99.90
2019-04-28T06:53:27.379Z,99.90
2019-04-28T06:55:57.275Z,99.90
2019-04-28T06:58:27.416Z,99.90
2019-04-28T07:00:57.584Z,99.90
2019-04-28T07:03:30.336Z,99.90
2019-04-28T07:06:03.491Z,99.90
2019-04-28T07:08:33.954Z,99.90
2019-04-28T07:11:09.532Z,99.90
2019-04-28T07:13:39.723Z,99.90
2019-04-28T07:16:13.172Z,99.90
2019-04-28T07:18:43.034Z,99.90
2019-04-28T07:21:28.617Z,99.90
2019-04-28T07:24:04.984Z,99.90
2019-04-28T07:26:35.029Z,99.90
2019-04-28T07:29:04.945Z,99.90
2019-04-28T07:31:34.757Z,99.90
2019-04-28T07:34:04.670Z,99.90
2019-04-28T07:36:42.150Z,99.90
2019-04-28T07:39:15.221Z,99.90
2019-04-28T07:41:45.267Z,99.90
2019-04-28T07:44:15.185Z,99.90
2019-04-28T07:46:44.942Z,99.90
2019-04-28T07:49:14.706Z,99.90
2019-04-28T07:52:06.124Z,99.90
2019-04-28T07:54:36.190Z,99.90
2019-04-28T07:57:06.307Z,98.60
2019-04-28T07:59:36.043Z,99.00
2019-04-28T08:02:05.521Z,99.70
2019-04-28T08:04:35.256Z,93.30
2019-04-28T08:10:51.434Z,84.50
2019-04-28T08:13:21.287Z,83.00
2019-04-28T08:15:54.245Z,75.40
2019-04-28T08:18:23.920Z,81.40
2019-04-28T08:20:53.542Z,85.90
2019-04-28T08:23:23.337Z,82.30
2019-04-28T08:25:52.832Z,76.00
2019-04-28T08:28:22.346Z,75.40
2019-04-28T08:30:52.438Z,77.40
2019-04-28T08:33:35.832Z,79.70
2019-04-28T08:36:08.446Z,72.20
2019-04-28T08:38:38.081Z,76.80
2019-04-28T08:41:07.895Z,75.00
2019-04-28T08:43:37.604Z,72.90
2019-04-28T08:46:07.113Z,72.20
2019-04-28T08:48:36.608Z,76.40
2019-04-28T08:51:06.361Z,81.80
2019-04-28T08:53:35.930Z,81.40
2019-04-28T08:56:05.340Z,83.50
2019-04-28T08:58:39.009Z,85.40
2019-04-28T09:01:12.228Z,84.40
2019-04-28T09:03:41.784Z,82.70
2019-04-28T09:06:11.443Z,89.10
2019-04-28T09:08:40.918Z,85.40
2019-04-28T09:11:13.423Z,89.20
2019-04-28T09:13:44.032Z,88.90
2019-04-28T09:16:13.741Z,85.50
2019-04-28T09:18:43.649Z,86.60
2019-04-28T09:21:13.388Z,85.30
2019-04-28T09:23:43.890Z,87.50
2019-04-28T09:26:13.988Z,88.10
2019-04-28T09:28:46.922Z,91.90
2019-04-28T09:31:16.529Z,88.50
2019-04-28T09:33:47.174Z,92.50
2019-04-28T09:36:16.777Z,90.70
2019-04-28T09:38:46.320Z,90.50
2019-04-28T09:41:16.109Z,91.10
2019-04-28T09:43:56.626Z,91.00
2019-04-28T09:46:29.979Z,91.90
2019-04-28T09:49:00.042Z,91.80
2019-04-28T09:51:29.700Z,91.40
2019-04-28T09:53:59.580Z,92.70
2019-04-28T09:56:29.779Z,91.80
2019-04-28T09:58:59.826Z,90.20
2019-04-28T10:01:29.776Z,90.30
2019-04-28T10:04:05.742Z,91.80
2019-04-28T10:06:38.626Z,91.70
2019-04-28T10:09:08.538Z,94.00
2019-04-28T10:11:41.686Z,89.80
2019-04-28T10:14:11.601Z,90.50
2019-04-28T10:16:41.516Z,90.00
2019-04-28T10:19:11.226Z,92.00
2019-04-28T10:21:58.906Z,93.50
2019-04-28T10:24:28.688Z,86.10
2019-04-28T10:27:01.040Z,84.40
2019-04-28T10:29:32.948Z,87.40
2019-04-28T10:32:02.376Z,87.90
2019-04-28T10:34:32.039Z,84.60
2019-04-28T10:37:02.340Z,84.50
2019-04-28T10:39:37.648Z,86.30
2019-04-28T10:42:10.768Z,85.90
2019-04-28T10:44:45.516Z,81.90
2019-04-28T10:47:15.929Z,83.30
2019-04-28T10:49:46.349Z,86.00
2019-04-28T10:52:19.479Z,85.20
2019-04-28T10:54:52.334Z,86.60
2019-04-28T10:57:22.122Z,80.80
2019-04-28T10:59:54.708Z,85.70
2019-04-28T11:02:27.801Z,81.10
2019-04-28T11:05:08.882Z,81.90
2019-04-28T11:07:39.571Z,80.00
2019-04-28T11:10:12.874Z,77.10
2019-04-28T11:12:44.429Z,78.70
2019-04-28T11:15:28.955Z,71.60
2019-04-28T11:17:59.340Z,69.10
2019-04-28T11:23:25.781Z,78.70
2019-04-28T11:25:58.229Z,77.10
2019-04-28T11:28:27.979Z,76.40
2019-04-28T11:31:00.863Z,72.40
2019-04-28T11:33:52.489Z,63.80
2019-04-28T11:36:23.734Z,68.20
2019-04-28T11:38:55.244Z,69.30
2019-04-28T11:41:24.893Z,67.80
2019-04-28T11:43:54.500Z,65.90
2019-04-28T11:46:28.577Z,67.50
2019-04-28T11:48:58.529Z,72.60
2019-04-28T11:51:28.281Z,73.80
2019-04-28T11:53:58.269Z,75.20
2019-04-28T11:56:40.430Z,73.50
2019-04-28T11:59:03.307Z,74.20
2019-04-28T12:01:33.487Z,76.30
2019-04-28T12:04:04.919Z,70.90
2019-04-28T12:06:39.855Z,76.90
2019-04-28T12:10:03.371Z,75.30
2019-04-28T12:12:45.021Z,75.60
2019-04-28T12:16:00.935Z,74.20
2019-04-28T12:19:01.601Z,77.10
2019-04-28T12:21:34.690Z,74.10
2019-04-28T12:24:08.188Z,75.60
2019-04-28T12:26:38.086Z,75.80
2019-04-28T12:29:07.989Z,78.70
2019-04-28T12:31:40.532Z,77.60
2019-04-28T12:34:10.584Z,78.20
2019-04-28T12:36:41.010Z,78.20
2019-04-28T12:39:10.955Z,78.90
2019-04-28T12:41:41.233Z,83.00
2019-04-28T12:44:11.499Z,79.90
2019-04-28T12:46:41.414Z,82.00
2019-04-28T12:49:34.676Z,85.10
2019-04-28T12:52:06.368Z,81.60
2019-04-28T12:54:37.857Z,83.80
2019-04-28T12:57:07.800Z,85.10
2019-04-28T12:59:43.551Z,83.70
2019-04-28T13:02:32.309Z,84.60
2019-04-28T13:05:09.595Z,86.20
2019-04-28T13:07:39.567Z,87.20
2019-04-28T13:10:09.470Z,90.10
2019-04-28T13:12:42.412Z,88.20
2019-04-28T13:15:12.290Z,89.60
2019-04-28T13:17:42.547Z,89.20
2019-04-28T13:20:12.457Z,90.40
2019-04-28T13:22:45.368Z,91.30
2019-04-28T13:25:18.026Z,90.10
2019-04-28T13:27:51.117Z,89.70
2019-04-28T13:30:24.027Z,90.40
2019-04-28T13:33:00.395Z,90.80
2019-04-28T13:35:30.429Z,91.70
2019-04-28T13:38:06.382Z,92.10
2019-04-28T13:40:38.174Z,91.40
2019-04-28T13:43:13.672Z,90.00
2019-04-28T13:45:44.024Z,91.10
2019-04-28T13:48:13.641Z,83.00
2019-04-28T13:50:48.801Z,90.60
2019-04-28T13:53:18.185Z,85.20
2019-04-28T13:56:01.336Z,87.80
2019-04-28T13:58:34.928Z,88.70
2019-04-28T14:01:24.007Z,87.90
2019-04-28T14:04:13.030Z,89.40
2019-04-28T14:06:46.612Z,89.30
2019-04-28T14:09:18.331Z,90.80
2019-04-28T14:11:48.576Z,91.20
2019-04-28T14:14:22.969Z,91.70
2019-04-28T14:17:39.681Z,92.10
2019-04-28T14:20:09.792Z,93.10
2019-04-28T14:22:39.818Z,95.70
2019-04-28T14:25:09.732Z,96.80
2019-04-28T14:27:43.022Z,95.90
2019-04-28T14:30:12.965Z,96.40
2019-04-28T14:32:42.968Z,96.40
2019-04-28T14:35:12.711Z,95.30
2019-04-28T14:37:42.617Z,95.80
2019-04-28T14:40:12.328Z,96.40
2019-04-28T14:42:42.412Z,98.80
2019-04-28T14:45:12.485Z,99.70
2019-04-28T14:47:53.159Z,99.90
2019-04-28T14:50:26.186Z,99.90
2019-04-28T14:52:57.275Z,99.90
2019-04-28T14:55:31.850Z,99.90
2019-04-28T14:58:05.119Z,99.90
2019-04-28T15:00:42.433Z,99.90
2019-04-28T15:03:13.828Z,99.90
2019-04-28T15:05:58.824Z,99.90
2019-04-28T15:08:43.174Z,99.90
2019-04-28T15:11:25.019Z,99.90
2019-04-28T15:13:58.246Z,99.90
2019-04-28T15:16:31.453Z,99.90
2019-04-28T15:19:04.572Z,99.90
2019-04-28T15:21:34.458Z,99.90
2019-04-28T15:24:04.196Z,99.90
2019-04-28T15:26:37.285Z,99.90
2019-04-28T15:29:07.302Z,99.90
2019-04-28T15:31:42.194Z,99.90
2019-04-28T15:34:12.093Z,99.90
2019-04-28T15:36:43.601Z,99.90
2019-04-28T15:39:17.031Z,99.90
2019-04-28T15:41:47.321Z,99.90
2019-04-28T15:44:19.575Z,99.90
2019-04-28T15:47:14.188Z,99.90
2019-04-28T15:49:44.304Z,99.90
2019-04-28T15:52:17.188Z,99.90
2019-04-28T15:54:47.482Z,99.90
2019-04-28T15:57:17.209Z,99.90
2019-04-28T15:59:50.560Z,99.90
2019-04-28T16:02:23.813Z,99.90
2019-04-28T16:04:53.725Z,99.90
2019-04-28T16:11:11.476Z,99.90
2019-04-28T16:13:41.715Z,99.90
2019-04-28T16:16:18.101Z,99.90
2019-04-28T16:18:51.182Z,99.90
2019-04-28T16:21:25.859Z,99.90
2019-04-28T16:23:57.337Z,99.90
2019-04-28T16:26:27.705Z,99.90
2019-04-28T16:29:04.582Z,99.90
2019-04-28T16:32:39.406Z,99.90
2019-04-28T16:35:58.725Z,99.90
2019-04-28T16:38:31.428Z,99.90
2019-04-28T16:41:57.916Z,99.90
2019-04-28T16:44:40.902Z,99.90
2019-04-28T16:47:23.400Z,99.90
2019-04-28T16:50:04.376Z,99.90
2019-04-28T16:52:46.413Z,99.90
2019-04-28T16:55:35.080Z,99.90
2019-04-28T16:58:21.326Z,99.90
2019-04-28T17:01:13.154Z,99.90
2019-04-28T17:03:47.206Z,99.90
2019-04-28T17:06:17.386Z,99.90
2019-04-28T17:08:48.485Z,99.90
2019-04-28T17:11:18.305Z,99.90
2019-04-28T17:13:48.027Z,99.90
2019-04-28T17:16:18.481Z,99.90
2019-04-28T17:18:52.535Z,99.90
2019-04-28T17:21:22.480Z,99.90
2019-04-28T17:23:52.151Z,99.90
2019-04-28T17:26:25.101Z,99.90
2019-04-28T17:28:58.189Z,99.90
2019-04-28T17:31:28.179Z,99.90
2019-04-28T17:33:58.057Z,99.90
2019-04-28T17:36:34.180Z,99.90
2019-04-28T17:39:06.524Z,99.90
2019-04-28T17:41:55.968Z,99.90
2019-04-28T17:45:02.691Z,99.90
2019-04-28T17:47:48.123Z,99.90
2019-04-28T17:54:00.720Z,99.90
2019-04-28T17:59:24.549Z,99.90
2019-04-28T18:02:23.992Z,99.90
2019-04-28T18:05:24.858Z,99.90
2019-04-28T18:10:52.837Z,99.90
2019-04-28T18:13:53.478Z,99.90
2019-04-28T18:17:00.505Z,99.90
2019-04-28T18:19:41.374Z,99.90
2019-04-28T18:22:34.804Z,99.90
2019-04-28T18:25:23.252Z,99.90
2019-04-28T18:28:14.090Z,99.90
2019-04-28T18:31:01.890Z,99.90
2019-04-28T18:33:52.284Z,99.90
2019-04-28T18:36:32.927Z,99.90
2019-04-28T18:39:25.675Z,99.90
2019-04-28T18:42:10.561Z,99.90
2019-04-28T18:44:42.459Z,99.90
2019-04-28T18:47:15.414Z,99.90
2019-04-28T18:49:53.623Z,99.90
2019-04-28T18:55:19.154Z,99.90
2019-04-28T18:58:07.605Z,99.90
2019-04-28T19:00:46.530Z,99.90
2019-04-28T19:03:16.436Z,99.90
2019-04-28T19:05:48.510Z,99.90
2019-04-28T19:08:48.928Z,99.90
2019-04-28T19:18:24.713Z,99.90
2019-04-28T19:21:13.087Z,99.90
2019-04-28T19:23:43.413Z,99.90
2019-04-28T19:26:16.908Z,99.90
2019-04-28T19:28:48.155Z,99.90
2019-04-28T19:31:22.957Z,99.90
2019-04-28T19:34:19.519Z,99.90
2019-04-28T19:36:49.156Z,99.90
2019-04-28T19:39:19.456Z,99.90
2019-04-28T19:41:54.142Z,99.90
2019-04-28T19:44:35.977Z,99.90
2019-04-28T19:47:06.036Z,99.90
2019-04-28T19:49:41.988Z,99.90
2019-04-28T19:52:11.660Z,99.90
2019-04-28T19:55:13.523Z,99.90
2019-04-28T19:58:26.312Z,99.90
2019-04-28T20:01:26.776Z,99.90
2019-04-28T20:04:09.489Z,99.90
2019-04-28T20:06:49.482Z,99.90
2019-04-28T20:09:19.357Z,99.90
2019-04-28T20:11:49.271Z,99.90
2019-04-28T20:14:42.399Z,99.90
2019-04-28T20:20:11.954Z,99.90
2019-04-28T20:22:45.494Z,99.90
2019-04-28T20:25:23.356Z,99.90
2019-04-28T20:27:56.239Z,99.90
2019-04-28T20:30:35.650Z,99.90
2019-04-28T20:33:22.282Z,99.90
2019-04-28T20:36:00.595Z,99.90
2019-04-28T20:42:29.615Z,99.90
2019-04-28T20:45:20.420Z,99.90
2019-04-28T20:51:53.229Z,99.90
2019-04-28T20:54:35.005Z,99.90
2019-04-28T21:00:34.245Z,99.90
2019-04-28T21:03:08.663Z,99.90
2019-04-28T21:05:43.055Z,99.90
2019-04-28T21:08:25.287Z,99.90
2019-04-28T21:10:55.479Z,99.90
2019-04-28T21:13:28.822Z,99.90
2019-04-28T21:16:25.441Z,99.90
2019-04-28T21:19:09.665Z,99.90
2019-04-28T21:21:59.077Z,99.90
2019-04-28T21:24:29.291Z,99.90
2019-04-28T21:27:05.244Z,99.90
2019-04-28T21:29:58.887Z,99.90
2019-04-28T21:32:51.924Z,99.90
2019-04-28T21:35:21.960Z,99.90
2019-04-28T21:37:58.417Z,99.90
2019-04-28T21:40:38.147Z,99.90
2019-04-28T21:43:43.959Z,99.90
2019-04-28T21:46:49.066Z,99.90
2019-04-28T21:49:36.983Z,99.90
2019-04-28T21:55:39.741Z,99.90
2019-04-28T21:58:33.002Z,99.90
2019-04-28T22:01:24.770Z,99.90
2019-04-28T22:04:05.394Z,99.90
2019-04-28T22:14:37.107Z,99.90
2019-04-28T22:27:42.761Z,99.90
2019-04-28T22:30:12.777Z,99.90
2019-04-28T22:32:42.714Z,99.90
2019-04-28T22:35:12.467Z,99.90
2019-04-28T22:38:06.947Z,99.90
2019-04-28T22:40:36.724Z,99.90
2019-04-28T22:43:11.263Z,99.90
2019-04-28T22:45:50.364Z,99.90
2019-04-28T22:48:22.389Z,99.90
2019-04-28T22:50:53.173Z,99.90
2019-04-28T22:53:30.717Z,99.90
2019-04-28T22:56:28.587Z,99.90
2019-04-28T22:59:15.092Z,99.90
2019-04-28T23:02:21.919Z,99.90
2019-04-28T23:05:03.671Z,99.90
2019-04-28T23:07:33.341Z,99.90
2019-04-28T23:10:04.107Z,99.90
2019-04-28T23:12:33.781Z,99.90
2019-04-28T23:15:04.474Z,99.90
2019-04-28T23:17:34.361Z,99.90
2019-04-28T23:20:05.379Z,99.90
2019-04-28T23:22:47.080Z,99.90
2019-04-28T23:25:15.114Z,99.90
2019-04-28T23:27:57.366Z,99.90
2019-04-28T23:31:04.284Z,99.90
2019-04-28T23:33:45.222Z,99.90
2019-04-28T23:36:36.521Z,99.90
2019-04-28T23:39:07.778Z,99.90
2019-04-28T23:41:44.973Z,99.90
2019-04-28T23:44:15.035Z,99.90
2019-04-28T23:46:58.613Z,99.90
2019-04-28T23:49:29.550Z,99.90
2019-04-28T23:52:17.405Z,99.90
2019-04-28T23:55:15.172Z,99.90
2019-04-28T23:57:54.186Z,99.90
